Aviation Digital Data Service (ADDS)

Output produced by METARs form (0401 UTC 26 June 2019)
found at http://www.aviationweather.gov/metar/data/
 
METAR text: WMKD 260300Z VRB05KT 9999 FEW019 SCT160 BKN280 28/24 Q1011 NOSIG
Conditions at: WMKD (KUANTAN (AFB) , MY) observed 0300 UTC 26 June 2019
Temperature: 28.0°C (82°F)
Dewpoint: 24.0°C (75°F) [RH = 79%]
Pressure (altimeter): 29.85 inches Hg (1011.0 mb)
Winds: variable direction winds at 6 MPH (5 knots; 2.6 m/s)
Visibility: 6 or more miles (10+ km)
Ceiling: 28000 feet AGL
Clouds: few clouds at 1900 feet AGL
scattered clouds at 16000 feet AGL
broken clouds at 28000 feet AGL
Weather: no significant weather observed at this time

METAR text: WMKD 260200Z VRB06KT 9999 FEW019 SCT160 BKN280 27/24 Q1012 NOSIG
Conditions at: WMKD (KUANTAN (AFB) , MY) observed 0200 UTC 26 June 2019
Temperature: 27.0°C (81°F)
Dewpoint: 24.0°C (75°F) [RH = 84%]
Pressure (altimeter): 29.88 inches Hg (1012.0 mb)
Winds: variable direction winds at 7 MPH (6 knots; 3.1 m/s)
Visibility: 6 or more miles (10+ km)
Ceiling: 28000 feet AGL
Clouds: few clouds at 1900 feet AGL
scattered clouds at 16000 feet AGL
broken clouds at 28000 feet AGL
Weather: no significant weather observed at this time

METAR text: WMKD 260100Z VRB06G19KT 7000 FEW010 SCT160 BKN280 27/26 Q1012 NOSIG
Conditions at: WMKD (KUANTAN (AFB) , MY) observed 0100 UTC 26 June 2019
Temperature: 27.0°C (81°F)
Dewpoint: 26.0°C (79°F) [RH = 94%]
Pressure (altimeter): 29.88 inches Hg (1012.0 mb)
Winds: variable direction winds at 7 MPH (6 knots; 3.1 m/s)
gusting to 22 MPH (19 knots; 9.8 m/s)
Visibility: 4 miles ( 7 km)
Ceiling: 28000 feet AGL
Clouds: few clouds at 1000 feet AGL
scattered clouds at 16000 feet AGL
broken clouds at 28000 feet AGL
Weather: no significant weather observed at this time

METAR text: WMKD 260000Z 00000KT 7000 FEW009 BKN280 25/25 Q1011 NOSIG
Conditions at: WMKD (KUANTAN (AFB) , MY) observed 0000 UTC 26 June 2019
Temperature: 25.0°C (77°F)
Dewpoint: 25.0°C (77°F) [RH = 100%]
Pressure (altimeter): 29.85 inches Hg (1011.0 mb)
Winds: calm
Visibility: 4 miles ( 7 km)
Ceiling: 28000 feet AGL
Clouds: few clouds at 900 feet AGL
broken clouds at 28000 feet AGL
Weather: no significant weather observed at this time

METAR text: WMKD 252300Z 00000KT 6000 FEW000 SCT160 BKN280 24/24 Q1010 NOSIG
Conditions at: WMKD (KUANTAN (AFB) , MY) observed 2300 UTC 25 June 2019
Temperature: 24.0°C (75°F)
Dewpoint: 24.0°C (75°F) [RH = 100%]
Pressure (altimeter): 29.82 inches Hg (1010.0 mb)
Winds: calm
Visibility: 4 miles ( 6 km)
Ceiling: 28000 feet AGL
Clouds: few clouds at 0 feet AGL
scattered clouds at 16000 feet AGL
broken clouds at 28000 feet AGL
Weather: no significant weather observed at this time

METAR text: WMKD 252200Z 00000KT 6000 FEW000 SCT160 BKN280 24/24 Q1010 NOSIG
Conditions at: WMKD (KUANTAN (AFB) , MY) observed 2200 UTC 25 June 2019
Temperature: 24.0°C (75°F)
Dewpoint: 24.0°C (75°F) [RH = 100%]
Pressure (altimeter): 29.82 inches Hg (1010.0 mb)
Winds: calm
Visibility: 4 miles ( 6 km)
Ceiling: 28000 feet AGL
Clouds: few clouds at 0 feet AGL
scattered clouds at 16000 feet AGL
broken clouds at 28000 feet AGL
Weather: no significant weather observed at this time

METAR text: WMKD 252100Z 00000KT 6000 FEW000 SCT160 BKN280 24/24 Q1010 NOSIG
Conditions at: WMKD (KUANTAN (AFB) , MY) observed 2100 UTC 25 June 2019
Temperature: 24.0°C (75°F)
Dewpoint: 24.0°C (75°F) [RH = 100%]
Pressure (altimeter): 29.82 inches Hg (1010.0 mb)
Winds: calm
Visibility: 4 miles ( 6 km)
Ceiling: 28000 feet AGL
Clouds: few clouds at 0 feet AGL
scattered clouds at 16000 feet AGL
broken clouds at 28000 feet AGL
Weather: no significant weather observed at this time

METAR text: WMKD 252000Z 00000KT 6000 FEW000 SCT160 BKN280 24/24 Q1010 NOSIG
Conditions at: WMKD (KUANTAN (AFB) , MY) observed 2000 UTC 25 June 2019
Temperature: 24.0°C (75°F)
Dewpoint: 24.0°C (75°F) [RH = 100%]
Pressure (altimeter): 29.82 inches Hg (1010.0 mb)
Winds: calm
Visibility: 4 miles ( 6 km)
Ceiling: 28000 feet AGL
Clouds: few clouds at 0 feet AGL
scattered clouds at 16000 feet AGL
broken clouds at 28000 feet AGL
Weather: no significant weather observed at this time

METAR text: WMKD 251900Z 00000KT 6000 FEW000 SCT160 BKN280 25/24 Q1010 NOSIG
Conditions at: WMKD (KUANTAN (AFB) , MY) observed 1900 UTC 25 June 2019
Temperature: 25.0°C (77°F)
Dewpoint: 24.0°C (75°F) [RH = 94%]
Pressure (altimeter): 29.82 inches Hg (1010.0 mb)
Winds: calm
Visibility: 4 miles ( 6 km)
Ceiling: 28000 feet AGL
Clouds: few clouds at 0 feet AGL
scattered clouds at 16000 feet AGL
broken clouds at 28000 feet AGL
Weather: no significant weather observed at this time

METAR text: WMKD 251800Z 00000KT 7000 FEW010 SCT160 BKN280 25/24 Q1011 NOSIG
Conditions at: WMKD (KUANTAN (AFB) , MY) observed 1800 UTC 25 June 2019
Temperature: 25.0°C (77°F)
Dewpoint: 24.0°C (75°F) [RH = 94%]
Pressure (altimeter): 29.85 inches Hg (1011.0 mb)
Winds: calm
Visibility: 4 miles ( 7 km)
Ceiling: 28000 feet AGL
Clouds: few clouds at 1000 feet AGL
scattered clouds at 16000 feet AGL
broken clouds at 28000 feet AGL
Weather: no significant weather observed at this time

METAR text: WMKD 251700Z 00000KT 9000 FEW025 SCT160 BKN280 24/24 Q1011 NOSIG
Conditions at: WMKD (KUANTAN (AFB) , MY) observed 1700 UTC 25 June 2019
Temperature: 24.0°C (75°F)
Dewpoint: 24.0°C (75°F) [RH = 100%]
Pressure (altimeter): 29.85 inches Hg (1011.0 mb)
Winds: calm
Visibility: 6 miles ( 9 km)
Ceiling: 28000 feet AGL
Clouds: few clouds at 2500 feet AGL
scattered clouds at 16000 feet AGL
broken clouds at 28000 feet AGL
Weather: no significant weather observed at this time

METAR text: WMKD 251600Z 00000KT 9000 FEW025 SCT160 BKN280 25/24 Q1011 NOSIG
Conditions at: WMKD (KUANTAN (AFB) , MY) observed 1600 UTC 25 June 2019
Temperature: 25.0°C (77°F)
Dewpoint: 24.0°C (75°F) [RH = 94%]
Pressure (altimeter): 29.85 inches Hg (1011.0 mb)
Winds: calm
Visibility: 6 miles ( 9 km)
Ceiling: 28000 feet AGL
Clouds: few clouds at 2500 feet AGL
scattered clouds at 16000 feet AGL
broken clouds at 28000 feet AGL
Weather: no significant weather observed at this time

METAR text: WMKD 251500Z 00000KT 9000 FEW025 SCT160 BKN280 24/24 Q1011 NOSIG
Conditions at: WMKD (KUANTAN (AFB) , MY) observed 1500 UTC 25 June 2019
Temperature: 24.0°C (75°F)
Dewpoint: 24.0°C (75°F) [RH = 100%]
Pressure (altimeter): 29.85 inches Hg (1011.0 mb)
Winds: calm
Visibility: 6 miles ( 9 km)
Ceiling: 28000 feet AGL
Clouds: few clouds at 2500 feet AGL
scattered clouds at 16000 feet AGL
broken clouds at 28000 feet AGL
Weather: no significant weather observed at this time

METAR text: WMKD 251400Z 00000KT 9000 FEW025 SCT160 BKN280 24/24 Q1011 NOSIG
Conditions at: WMKD (KUANTAN (AFB) , MY) observed 1400 UTC 25 June 2019
Temperature: 24.0°C (75°F)
Dewpoint: 24.0°C (75°F) [RH = 100%]
Pressure (altimeter): 29.85 inches Hg (1011.0 mb)
Winds: calm
Visibility: 6 miles ( 9 km)
Ceiling: 28000 feet AGL
Clouds: few clouds at 2500 feet AGL
scattered clouds at 16000 feet AGL
broken clouds at 28000 feet AGL
Weather: no significant weather observed at this time

METAR text: WMKD 251300Z 00000KT 9000 FEW025 SCT160 BKN280 24/24 Q1010 NOSIG
Conditions at: WMKD (KUANTAN (AFB) , MY) observed 1300 UTC 25 June 2019
Temperature: 24.0°C (75°F)
Dewpoint: 24.0°C (75°F) [RH = 100%]
Pressure (altimeter): 29.82 inches Hg (1010.0 mb)
Winds: calm
Visibility: 6 miles ( 9 km)
Ceiling: 28000 feet AGL
Clouds: few clouds at 2500 feet AGL
scattered clouds at 16000 feet AGL
broken clouds at 28000 feet AGL
Weather: no significant weather observed at this time

METAR text: WMKD 251200Z 00000KT 9000 FEW024 BKN260 25/24 Q1009 RETSRA NOSIG
Conditions at: WMKD (KUANTAN (AFB) , MY) observed 1200 UTC 25 June 2019
Temperature: 25.0°C (77°F)
Dewpoint: 24.0°C (75°F) [RH = 94%]
Pressure (altimeter): 29.79 inches Hg (1009.0 mb)
Winds: calm
Visibility: 6 miles ( 9 km)
Ceiling: 26000 feet AGL
Clouds: few clouds at 2400 feet AGL
broken clouds at 26000 feet AGL
Weather: no significant weather observed at this time

METAR text: WMKD 251100Z VRB02KT 8000 -TSRA FEW010 FEW017CB BKN260 24/24 Q1009 RETSRA BECMG NSW
Conditions at: WMKD (KUANTAN (AFB) , MY) observed 1100 UTC 25 June 2019
Temperature: 24.0°C (75°F)
Dewpoint: 24.0°C (75°F) [RH = 100%]
Pressure (altimeter): 29.79 inches Hg (1009.0 mb)
Winds: variable direction winds at 2 MPH (2 knots; 1.0 m/s)
Visibility: 5 miles ( 8 km)
Ceiling: 26000 feet AGL
Clouds: few clouds at 1000 feet AGL
few clouds at 1700 feet AGL
broken clouds at 26000 feet AGL
Weather: -TSRA  (light rain associated with thunderstorm(s))

METAR text: WMKD 251000Z 23006KT 190V260 2000 TSRA FEW004 FEW016CB SCT024 BKN260 24/23 Q1009 RETSRA NOSIG
Conditions at: WMKD (KUANTAN (AFB) , MY) observed 1000 UTC 25 June 2019
Temperature: 24.0°C (75°F)
Dewpoint: 23.0°C (73°F) [RH = 94%]
Pressure (altimeter): 29.79 inches Hg (1009.0 mb)
Winds: from the SW (230 degrees) at 7 MPH (6 knots; 3.1 m/s)
Visibility: 1.24 miles (2.00 km)
Ceiling: 26000 feet AGL
Clouds: few clouds at 400 feet AGL
few clouds at 1600 feet AGL
scattered clouds at 2400 feet AGL
broken clouds at 26000 feet AGL
Weather: TSRA  (rain associated with thunderstorm(s))

METAR text: WMKD 250900Z 11007KT 050V170 9999 TS FEW017CB SCT019 BKN280 32/27 Q1008 NOSIG
Conditions at: WMKD (KUANTAN (AFB) , MY) observed 0900 UTC 25 June 2019
Temperature: 32.0°C (90°F)
Dewpoint: 27.0°C (81°F) [RH = 75%]
Pressure (altimeter): 29.76 inches Hg (1008.0 mb)
Winds: from the ESE (110 degrees) at 8 MPH (7 knots; 3.6 m/s)
Visibility: 6 or more miles (10+ km)
Ceiling: 28000 feet AGL
Clouds: few clouds at 1700 feet AGL
scattered clouds at 1900 feet AGL
broken clouds at 28000 feet AGL
Weather: TS  (thunderstorm)

METAR text: WMKD 250800Z VRB03KT 9999 FEW017CB SCT019 BKN280 33/27 Q1007 NOSIG
Conditions at: WMKD (KUANTAN (AFB) , MY) observed 0800 UTC 25 June 2019
Temperature: 33.0°C (91°F)
Dewpoint: 27.0°C (81°F) [RH = 71%]
Pressure (altimeter): 29.73 inches Hg (1007.0 mb)
Winds: variable direction winds at 3 MPH (3 knots; 1.5 m/s)
Visibility: 6 or more miles (10+ km)
Ceiling: 28000 feet AGL
Clouds: few clouds at 1700 feet AGL
scattered clouds at 1900 feet AGL
broken clouds at 28000 feet AGL
Weather: no significant weather observed at this time

METAR text: WMKD 250700Z 24005KT 150V300 9999 FEW017CB SCT024 BKN280 32/26 Q1008 NOSIG
Conditions at: WMKD (KUANTAN (AFB) , MY) observed 0700 UTC 25 June 2019
Temperature: 32.0°C (90°F)
Dewpoint: 26.0°C (79°F) [RH = 71%]
Pressure (altimeter): 29.76 inches Hg (1008.0 mb)
Winds: from the WSW (240 degrees) at 6 MPH (5 knots; 2.6 m/s)
Visibility: 6 or more miles (10+ km)
Ceiling: 28000 feet AGL
Clouds: few clouds at 1700 feet AGL
scattered clouds at 2400 feet AGL
broken clouds at 28000 feet AGL
Weather: no significant weather observed at this time

METAR text: WMKD 250600Z VRB03KT 9999 FEW017CB BKN280 32/26 Q1009 TEMPO 7000 -RA
Conditions at: WMKD (KUANTAN (AFB) , MY) observed 0600 UTC 25 June 2019
Temperature: 32.0°C (90°F)
Dewpoint: 26.0°C (79°F) [RH = 71%]
Pressure (altimeter): 29.79 inches Hg (1009.0 mb)
Winds: variable direction winds at 3 MPH (3 knots; 1.5 m/s)
Visibility: 6 or more miles (10+ km)
Ceiling: 28000 feet AGL
Clouds: few clouds at 1700 feet AGL
broken clouds at 28000 feet AGL
Weather: no significant weather observed at this time

METAR text: WMKD 250500Z VRB02KT 9999 FEW018TCU BKN280 31/27 Q1010 NOSIG
Conditions at: WMKD (KUANTAN (AFB) , MY) observed 0500 UTC 25 June 2019
Temperature: 31.0°C (88°F)
Dewpoint: 27.0°C (81°F) [RH = 79%]
Pressure (altimeter): 29.82 inches Hg (1010.0 mb)
Winds: variable direction winds at 2 MPH (2 knots; 1.0 m/s)
Visibility: 6 or more miles (10+ km)
Ceiling: 28000 feet AGL
Clouds: few clouds at 1800 feet AGL
broken clouds at 28000 feet AGL
Weather: no significant weather observed at this time

METAR text: WMKD 250400Z VRB03KT 9999 SCT019 BKN280 31/26 Q1011 NOSIG
Conditions at: WMKD (KUANTAN (AFB) , MY) observed 0400 UTC 25 June 2019
Temperature: 31.0°C (88°F)
Dewpoint: 26.0°C (79°F) [RH = 75%]
Pressure (altimeter): 29.85 inches Hg (1011.0 mb)
Winds: variable direction winds at 3 MPH (3 knots; 1.5 m/s)
Visibility: 6 or more miles (10+ km)
Ceiling: 28000 feet AGL
Clouds: scattered clouds at 1900 feet AGL
broken clouds at 28000 feet AGL
Weather: no significant weather observed at this time

METAR text: WMKD 250300Z 16005KT 100V260 9999 SCT022 BKN280 30/26 Q1011 NOSIG
Conditions at: WMKD (KUANTAN (AFB) , MY) observed 0300 UTC 25 June 2019
Temperature: 30.0°C (86°F)
Dewpoint: 26.0°C (79°F) [RH = 79%]
Pressure (altimeter): 29.85 inches Hg (1011.0 mb)
Winds: from the SSE (160 degrees) at 6 MPH (5 knots; 2.6 m/s)
Visibility: 6 or more miles (10+ km)
Ceiling: 28000 feet AGL
Clouds: scattered clouds at 2200 feet AGL
broken clouds at 28000 feet AGL
Weather: no significant weather observed at this time

METAR text: WMKD 250200Z VRB05KT 9999 FEW022 BKN280 29/26 Q1012 NOSIG
Conditions at: WMKD (KUANTAN (AFB) , MY) observed 0200 UTC 25 June 2019
Temperature: 29.0°C (84°F)
Dewpoint: 26.0°C (79°F) [RH = 84%]
Pressure (altimeter): 29.88 inches Hg (1012.0 mb)
Winds: variable direction winds at 6 MPH (5 knots; 2.6 m/s)
Visibility: 6 or more miles (10+ km)
Ceiling: 28000 feet AGL
Clouds: few clouds at 2200 feet AGL
broken clouds at 28000 feet AGL
Weather: no significant weather observed at this time

METAR text: WMKD 250100Z VRB03KT 9999 FEW022 BKN280 28/25 Q1011 NOSIG
Conditions at: WMKD (KUANTAN (AFB) , MY) observed 0100 UTC 25 June 2019
Temperature: 28.0°C (82°F)
Dewpoint: 25.0°C (77°F) [RH = 84%]
Pressure (altimeter): 29.85 inches Hg (1011.0 mb)
Winds: variable direction winds at 3 MPH (3 knots; 1.5 m/s)
Visibility: 6 or more miles (10+ km)
Ceiling: 28000 feet AGL
Clouds: few clouds at 2200 feet AGL
broken clouds at 28000 feet AGL
Weather: no significant weather observed at this time

METAR text: WMKD 250000Z VRB02KT 9999 FEW024 BKN280 26/25 Q1011 NOSIG
Conditions at: WMKD (KUANTAN (AFB) , MY) observed 0000 UTC 25 June 2019
Temperature: 26.0°C (79°F)
Dewpoint: 25.0°C (77°F) [RH = 94%]
Pressure (altimeter): 29.85 inches Hg (1011.0 mb)
Winds: variable direction winds at 2 MPH (2 knots; 1.0 m/s)
Visibility: 6 or more miles (10+ km)
Ceiling: 28000 feet AGL
Clouds: few clouds at 2400 feet AGL
broken clouds at 28000 feet AGL
Weather: no significant weather observed at this time

METAR text: WMKD 242300Z VRB03KT 9999 FEW006 BKN280 25/24 Q1010 NOSIG
Conditions at: WMKD (KUANTAN (AFB) , MY) observed 2300 UTC 24 June 2019
Temperature: 25.0°C (77°F)
Dewpoint: 24.0°C (75°F) [RH = 94%]
Pressure (altimeter): 29.82 inches Hg (1010.0 mb)
Winds: variable direction winds at 3 MPH (3 knots; 1.5 m/s)
Visibility: 6 or more miles (10+ km)
Ceiling: 28000 feet AGL
Clouds: few clouds at 600 feet AGL
broken clouds at 28000 feet AGL
Weather: no significant weather observed at this time

METAR text: WMKD 242200Z VRB03KT 8000 FEW003 BKN280 25/24 Q1010 NOSIG
Conditions at: WMKD (KUANTAN (AFB) , MY) observed 2200 UTC 24 June 2019
Temperature: 25.0°C (77°F)
Dewpoint: 24.0°C (75°F) [RH = 94%]
Pressure (altimeter): 29.82 inches Hg (1010.0 mb)
Winds: variable direction winds at 3 MPH (3 knots; 1.5 m/s)
Visibility: 5 miles ( 8 km)
Ceiling: 28000 feet AGL
Clouds: few clouds at 300 feet AGL
broken clouds at 28000 feet AGL
Weather: no significant weather observed at this time

METAR text: WMKD 242100Z 00000KT 9999 FEW025 BKN280 25/24 Q1009 NOSIG
Conditions at: WMKD (KUANTAN (AFB) , MY) observed 2100 UTC 24 June 2019
Temperature: 25.0°C (77°F)
Dewpoint: 24.0°C (75°F) [RH = 94%]
Pressure (altimeter): 29.79 inches Hg (1009.0 mb)
Winds: calm
Visibility: 6 or more miles (10+ km)
Ceiling: 28000 feet AGL
Clouds: few clouds at 2500 feet AGL
broken clouds at 28000 feet AGL
Weather: no significant weather observed at this time

METAR text: WMKD 242000Z 00000KT 9999 FEW025 BKN280 25/24 Q1009 NOSIG
Conditions at: WMKD (KUANTAN (AFB) , MY) observed 2000 UTC 24 June 2019
Temperature: 25.0°C (77°F)
Dewpoint: 24.0°C (75°F) [RH = 94%]
Pressure (altimeter): 29.79 inches Hg (1009.0 mb)
Winds: calm
Visibility: 6 or more miles (10+ km)
Ceiling: 28000 feet AGL
Clouds: few clouds at 2500 feet AGL
broken clouds at 28000 feet AGL
Weather: no significant weather observed at this time

METAR text: WMKD 241900Z 00000KT 9999 FEW025 BKN280 25/24 Q1009 NOSIG
Conditions at: WMKD (KUANTAN (AFB) , MY) observed 1900 UTC 24 June 2019
Temperature: 25.0°C (77°F)
Dewpoint: 24.0°C (75°F) [RH = 94%]
Pressure (altimeter): 29.79 inches Hg (1009.0 mb)
Winds: calm
Visibility: 6 or more miles (10+ km)
Ceiling: 28000 feet AGL
Clouds: few clouds at 2500 feet AGL
broken clouds at 28000 feet AGL
Weather: no significant weather observed at this time

METAR text: WMKD 241800Z 00000KT 9999 FEW025 BKN280 25/24 Q1010 NOSIG
Conditions at: WMKD (KUANTAN (AFB) , MY) observed 1800 UTC 24 June 2019
Temperature: 25.0°C (77°F)
Dewpoint: 24.0°C (75°F) [RH = 94%]
Pressure (altimeter): 29.82 inches Hg (1010.0 mb)
Winds: calm
Visibility: 6 or more miles (10+ km)
Ceiling: 28000 feet AGL
Clouds: few clouds at 2500 feet AGL
broken clouds at 28000 feet AGL
Weather: no significant weather observed at this time

METAR text: WMKD 241700Z 00000KT 9999 FEW025 SCT160 BKN280 25/24 Q1010 NOSIG
Conditions at: WMKD (KUANTAN (AFB) , MY) observed 1700 UTC 24 June 2019
Temperature: 25.0°C (77°F)
Dewpoint: 24.0°C (75°F) [RH = 94%]
Pressure (altimeter): 29.82 inches Hg (1010.0 mb)
Winds: calm
Visibility: 6 or more miles (10+ km)
Ceiling: 28000 feet AGL
Clouds: few clouds at 2500 feet AGL
scattered clouds at 16000 feet AGL
broken clouds at 28000 feet AGL
Weather: no significant weather observed at this time